Time;durP1;ratioP1;P1;durP2;ratioP2;P2;SDS_P1;SDS_P2;PMS_P1;PMS_P2;Temp;Humidity;BMP_temperature;BMP_pressure;BME280_temperature;BME280_humidity;BME280_pressure;Samples;Min_cycle;Max_cycle;Signal;HPM_P1;HPM_P2
2023/12/14 00:01:46;;;;;;;12.82;7.68;;;281.70;2278.40;;;;;;5079918;28;20020;-71
2023/12/14 00:04:12;;;;;;;11.93;7.78;;;281.60;2278.40;;;;;;5078079;28;20067;-72
2023/12/14 00:06:38;;;;;;;11.35;7.22;;;281.60;2278.40;;;;;;5076106;28;20492;-72
2023/12/14 00:09:03;;;;;;;9.70;6.90;;;256.90;2252.80;;;;;;5072851;28;20055;-72
2023/12/14 00:11:29;;;;;;;10.60;7.93;;;281.60;2278.40;;;;;;5068204;28;20029;-72
2023/12/14 00:13:55;;;;;;;10.95;8.23;;;256.90;2252.80;;;;;;5078812;28;20090;-73
2023/12/14 00:16:21;;;;;;;15.20;8.98;;;256.90;2252.80;;;;;;5070797;28;20032;-72
2023/12/14 00:18:47;;;;;;;12.38;7.78;;;256.90;2252.80;;;;;;5071186;28;20106;-72
2023/12/14 00:21:19;;;;;;;15.55;9.15;;;256.90;2252.80;;;;;;5066070;28;20373;-72
2023/12/14 00:23:45;;;;;;;17.25;10.07;;;256.90;2252.80;;;;;;5071856;28;20041;-72
2023/12/14 00:26:11;;;;;;;17.35;10.48;;;256.90;2252.80;;;;;;5068626;28;21694;-73
2023/12/14 00:28:36;;;;;;;16.17;9.35;;;256.90;2252.80;;;;;;5069377;28;20496;-72
2023/12/14 00:31:02;;;;;;;15.82;9.63;;;256.80;2252.80;;;;;;5072967;28;20050;-72
2023/12/14 00:33:28;;;;;;;16.10;10.48;;;256.80;2252.80;;;;;;5060448;28;20081;-73
2023/12/14 00:35:53;;;;;;;;;;;256.90;2252.80;;;;;;5071062;28;20020;-72
2023/12/14 00:38:19;;;;;;;14.80;9.25;;;281.60;2278.40;;;;;;5063625;28;19958;-73
2023/12/14 00:40:45;;;;;;;14.55;10.23;;;256.90;2252.80;;;;;;5071646;28;20436;-73
2023/12/14 00:43:10;;;;;;;;;;;281.60;2150.40;;;;;;5069910;28;20037;-72
2023/12/14 00:45:36;;;;;;;13.30;10.30;;;281.60;2278.40;;;;;;5073021;28;19934;-73
2023/12/14 00:48:02;;;;;;;17.10;10.32;;;256.90;2252.80;;;;;;5073508;28;20024;-72
2023/12/14 00:50:28;;;;;;;13.32;9.48;;;256.90;2176.00;;;;;;5061284;28;20378;-72
2023/12/14 00:52:53;;;;;;;15.88;11.48;;;256.90;1996.80;;;;;;5053604;28;20359;-72
2023/12/14 00:55:19;;;;;;;15.52;10.48;;;256.90;2048.00;;;;;;5053455;28;20033;-73
2023/12/14 00:57:45;;;;;;;15.38;10.18;;;256.90;2252.80;;;;;;5053582;28;20021;-73
2023/12/14 01:00:11;;;;;;;16.25;10.05;;;256.90;2150.40;;;;;;5068761;28;20025;-72
2023/12/14 01:02:37;;;;;;;13.63;9.82;;;281.60;1971.20;;;;;;5053290;28;20029;-75
2023/12/14 01:05:03;;;;;;;14.25;8.98;;;281.60;2278.40;;;;;;5053149;28;20029;-73
2023/12/14 01:07:29;;;;;;;13.27;9.00;;;256.90;2252.80;;;;;;5061021;28;20024;-73
2023/12/14 01:09:55;;;;;;;17.40;10.57;;;281.60;2278.40;;;;;;5073081;28;20465;-73
2023/12/14 01:12:20;;;;;;;;;;;281.60;2278.40;;;;;;5073610;28;20032;-73
2023/12/14 01:14:46;;;;;;;19.42;9.88;;;281.60;2278.40;;;;;;5073178;28;19904;-72
2023/12/14 01:17:12;;;;;;;;;;;256.70;2252.80;;;;;;5073682;28;20019;-73
2023/12/14 01:19:41;;;;;;;15.13;10.05;;;256.50;2252.80;;;;;;5071678;28;19905;-73
2023/12/14 01:22:07;;;;;;;14.20;9.32;;;256.40;2252.80;;;;;;5073298;28;20018;-73
2023/12/14 01:24:33;;;;;;;17.67;9.85;;;256.20;2252.80;;;;;;5072898;28;20386;-72
2023/12/14 01:26:58;;;;;;;17.67;10.18;;;256.20;2252.80;;;;;;5071842;28;20016;-73
2023/12/14 01:29:24;;;;;;;19.27;9.98;;;256.10;2252.80;;;;;;5072927;28;20032;-73
2023/12/14 01:31:50;;;;;;;15.85;10.43;;;256.10;2252.80;;;;;;5073010;28;20020;-73
2023/12/14 01:34:15;;;;;;;14.98;10.05;;;256.00;2252.80;;;;;;5071091;28;20383;-73
2023/12/14 01:36:42;;;;;;;16.27;9.88;;;256.00;2252.80;;;;;;5072974;28;20063;-74
2023/12/14 01:39:08;;;;;;;16.70;10.98;;;256.00;2252.80;;;;;;5072633;28;20390;-73
2023/12/14 01:41:33;;;;;;;18.02;10.80;;;256.00;2252.80;;;;;;5073247;28;20088;-73
2023/12/14 01:43:59;;;;;;;14.77;10.52;;;256.30;2252.80;;;;;;5072778;28;20107;-72
2023/12/14 01:46:25;;;;;;;15.10;10.07;;;256.40;2252.80;;;;;;5072923;28;20066;-73
2023/12/14 01:48:52;;;;;;;13.88;9.70;;;256.60;2252.80;;;;;;5073098;28;20409;-74
2023/12/14 01:51:18;;;;;;;17.50;10.77;;;256.60;2252.80;;;;;;5072612;28;20016;-75
2023/12/14 01:53:45;;;;;;;14.73;9.80;;;256.80;2252.80;;;;;;5072731;28;20134;-73
2023/12/14 01:56:10;;;;;;;15.32;10.25;;;281.60;2278.40;;;;;;5072809;28;20070;-74
2023/12/14 01:58:36;;;;;;;19.40;11.23;;;281.70;2278.40;;;;;;5072848;28;20064;-75
2023/12/14 02:01:13;;;;;;;;;;;281.70;2073.60;;;;;;5073245;28;20025;-75
2023/12/14 02:03:50;;;;;;;12.00;8.55;;;281.90;2278.40;;;;;;5072311;28;19921;-75
2023/12/14 02:06:16;;;;;;;16.67;9.80;;;281.70;2278.40;;;;;;5072632;28;20129;-75
2023/12/14 02:08:42;;;;;;;12.85;9.00;;;281.60;2278.40;;;;;;5072484;28;20147;-75
2023/12/14 02:11:08;;;;;;;15.75;9.93;;;256.90;2252.80;;;;;;5072767;28;20104;-74
2023/12/14 02:13:34;;;;;;;14.40;10.15;;;281.60;2278.40;;;;;;5071101;28;20035;-74
2023/12/14 02:16:00;;;;;;;17.00;9.82;;;281.60;2278.40;;;;;;5072618;28;20020;-74
2023/12/14 02:18:26;;;;;;;17.15;10.27;;;281.60;2278.40;;;;;;5072467;28;20489;-73
2023/12/14 02:20:52;;;;;;;17.23;10.68;;;281.60;2278.40;;;;;;5072420;28;20020;-74
2023/12/14 02:23:17;;;;;;;15.82;10.40;;;256.90;2252.80;;;;;;5072441;28;20133;-74
2023/12/14 02:25:43;;;;;;;13.88;10.60;;;256.80;2252.80;;;;;;5072459;28;20489;-73
2023/12/14 02:28:09;;;;;;;16.67;10.05;;;256.80;2252.80;;;;;;5072411;28;20060;-74
2023/12/14 02:30:35;;;;;;;;;;;256.80;2252.80;;;;;;5074026;28;20036;-74
2023/12/14 02:33:01;;;;;;;15.63;9.80;;;281.60;2278.40;;;;;;5075676;28;20377;-74
2023/12/14 02:35:26;;;;;;;14.95;10.73;;;281.70;2278.40;;;;;;5075828;28;20028;-74
2023/12/14 02:37:52;;;;;;;15.48;10.32;;;281.60;2278.40;;;;;;5075746;28;20025;-74
2023/12/14 02:40:18;;;;;;;17.83;10.98;;;281.60;2278.40;;;;;;5076293;28;20466;-73
2023/12/14 02:42:44;;;;;;;14.52;10.13;;;281.60;2278.40;;;;;;5075701;28;20025;-74
2023/12/14 02:45:10;;;;;;;13.35;8.02;;;256.90;2252.80;;;;;;5075913;28;20060;-73
2023/12/14 02:47:35;;;;;;;9.57;6.50;;;281.60;2278.40;;;;;;5075764;28;20021;-74
2023/12/14 02:50:01;;;;;;;9.07;5.55;;;281.60;2278.40;;;;;;5075768;28;20074;-76
2023/12/14 02:52:27;;;;;;;8.35;6.07;;;281.60;2278.40;;;;;;5075496;28;20095;-76
2023/12/14 02:54:53;;;;;;;9.70;5.55;;;281.70;2278.40;;;;;;5075819;28;20060;-74
2023/12/14 02:57:19;;;;;;;7.13;5.00;;;281.70;2278.40;;;;;;5075589;28;20056;-74
2023/12/14 02:59:44;;;;;;;;;;;281.90;2278.40;;;;;;5075562;28;20025;-74
2023/12/14 03:02:10;;;;;;;13.35;7.78;;;282.00;2278.40;;;;;;5075308;28;19939;-74
2023/12/14 03:04:42;;;;;;;13.48;9.10;;;281.90;2278.40;;;;;;5074117;28;20075;-74
2023/12/14 03:07:08;;;;;;;14.93;9.27;;;281.90;2278.40;;;;;;5075358;28;20106;-76
2023/12/14 03:09:34;;;;;;;14.75;9.30;;;281.90;2278.40;;;;;;5074225;28;20021;-74
2023/12/14 03:12:00;;;;;;;12.95;8.93;;;282.00;2278.40;;;;;;5075337;28;20085;-73
2023/12/14 03:14:31;;;;;;;12.55;9.48;;;282.20;2278.40;;;;;;5078345;28;20047;-74
2023/12/14 03:16:57;;;;;;;12.90;8.23;;;282.20;2278.40;;;;;;5078624;28;20028;-74
2023/12/14 03:19:22;;;;;;;10.52;7.30;;;282.10;2278.40;;;;;;5075203;28;20077;-73
2023/12/14 03:21:48;;;;;;;11.23;7.22;;;282.10;2278.40;;;;;;5075075;28;20396;-73
2023/12/14 03:24:14;;;;;;;10.50;7.45;;;281.90;2278.40;;;;;;5073811;28;20047;-73
2023/12/14 03:26:40;;;;;;;12.15;7.07;;;281.80;2278.40;;;;;;5074992;28;20025;-73
2023/12/14 03:29:05;;;;;;;10.15;7.68;;;281.90;2278.40;;;;;;5075398;28;20028;-73
2023/12/14 03:31:31;;;;;;;10.40;7.50;;;282.00;2278.40;;;;;;5074916;28;20016;-73
2023/12/14 03:33:57;;;;;;;11.50;7.90;;;282.00;2278.40;;;;;;5073473;28;20056;-77
2023/12/14 03:36:26;;;;;;;11.80;7.22;;;282.10;2278.40;;;;;;5074695;28;20370;-73
2023/12/14 03:38:52;;;;;;;9.25;6.82;;;282.00;2278.40;;;;;;5074896;28;20118;-73
2023/12/14 03:41:17;;;;;;;11.55;7.53;;;281.70;2278.40;;;;;;5074797;28;20025;-76
2023/12/14 03:43:44;;;;;;;9.50;6.95;;;256.90;2252.80;;;;;;5074890;28;20035;-73
2023/12/14 03:46:10;;;;;;;12.60;8.10;;;281.60;2252.80;;;;;;5074587;28;20437;-73
2023/12/14 03:48:35;;;;;;;13.18;8.02;;;281.70;2022.40;;;;;;5074820;28;20031;-73
2023/12/14 03:51:05;;;;;;;11.48;7.47;;;281.90;2278.40;;;;;;5074429;28;20017;-73
2023/12/14 03:53:31;;;;;;;10.80;7.90;;;282.10;2278.40;;;;;;5073179;28;20385;-73
2023/12/14 03:56:00;;;;;;;11.15;7.68;;;282.20;2278.40;;;;;;5074352;28;20027;-73
2023/12/14 03:58:26;;;;;;;11.95;7.50;;;282.30;2278.40;;;;;;5074240;28;20427;-73
2023/12/14 04:00:52;;;;;;;28.42;15.82;;;282.30;2278.40;;;;;;5074410;28;20067;-74
2023/12/14 04:03:18;;;;;;;26.02;14.43;;;282.20;2278.40;;;;;;5074045;28;20390;-73
2023/12/14 04:05:44;;;;;;;17.55;12.05;;;282.10;2278.40;;;;;;5073156;28;20041;-74
2023/12/14 04:08:10;;;;;;;;;;;282.10;2278.40;;;;;;5073323;28;20032;-73
2023/12/14 04:10:36;;;;;;;17.45;11.52;;;282.20;2278.40;;;;;;5074245;28;20324;-74
2023/12/14 04:13:01;;;;;;;;;;;282.20;2278.40;;;;;;5074313;28;20097;-74
2023/12/14 04:15:27;;;;;;;24.75;12.38;;;282.00;2278.40;;;;;;5074155;28;20404;-73
2023/12/14 04:17:53;;;;;;;18.23;11.27;;;282.00;2278.40;;;;;;5073806;28;20021;-73
2023/12/14 04:20:19;;;;;;;19.00;11.05;;;282.00;2278.40;;;;;;5074111;28;20043;-74
2023/12/14 04:22:45;;;;;;;15.93;11.32;;;282.00;2278.40;;;;;;5073637;28;20116;-74
2023/12/14 04:25:11;;;;;;;17.67;10.93;;;282.00;2278.40;;;;;;5074147;28;20060;-74
2023/12/14 04:27:37;;;;;;;16.50;11.25;;;281.90;2278.40;;;;;;5073785;28;20043;-74
2023/12/14 04:30:04;;;;;;;;;;;281.70;2278.40;;;;;;5074302;28;20024;-74
2023/12/14 04:32:30;;;;;;;23.13;13.38;;;281.60;2278.40;;;;;;5073605;28;19958;-74
2023/12/14 04:34:56;;;;;;;26.35;15.18;;;256.90;2252.80;;;;;;5073600;28;20036;-73
2023/12/14 04:37:21;;;;;;;25.08;15.50;;;281.70;2278.40;;;;;;5073461;28;20553;-74
2023/12/14 04:39:47;;;;;;;17.98;11.48;;;281.60;2278.40;;;;;;5073618;28;20028;-73
2023/12/14 04:42:13;;;;;;;16.08;10.88;;;281.70;2278.40;;;;;;5073743;28;20405;-73
2023/12/14 04:44:39;;;;;;;18.75;11.43;;;281.70;2278.40;;;;;;5073411;28;20036;-73
2023/12/14 04:47:04;;;;;;;17.77;11.75;;;281.70;2278.40;;;;;;5073500;28;20034;-74
2023/12/14 04:49:30;;;;;;;15.95;10.73;;;281.70;2278.40;;;;;;5073397;28;20024;-73
2023/12/14 04:51:56;;;;;;;15.73;11.75;;;281.90;2278.40;;;;;;5073382;28;20107;-74
2023/12/14 04:54:22;;;;;;;17.58;10.75;;;282.00;2278.40;;;;;;5072967;28;20092;-74
2023/12/14 04:56:47;;;;;;;;;;;282.10;2278.40;;;;;;5072685;28;20028;-74
2023/12/14 04:59:13;;;;;;;17.02;11.60;;;282.10;2278.40;;;;;;5073329;28;19995;-74
2023/12/14 05:01:39;;;;;;;19.88;13.40;;;282.20;2278.40;;;;;;5073272;28;20036;-73
2023/12/14 05:04:05;;;;;;;22.55;14.77;;;282.20;2278.40;;;;;;5073030;28;20028;-74
2023/12/14 05:06:33;;;;;;;23.20;13.52;;;282.00;2278.40;;;;;;5073075;28;20021;-73
2023/12/14 05:08:58;;;;;;;19.23;13.00;;;282.10;2278.40;;;;;;5073347;28;20078;-73
2023/12/14 05:11:24;;;;;;;23.88;16.10;;;282.20;2278.40;;;;;;5073335;28;20408;-74
2023/12/14 05:13:50;;;;;;;21.42;13.98;;;282.20;2278.40;;;;;;5073052;28;20113;-73
2023/12/14 05:16:17;;;;;;;23.98;14.02;;;282.10;2278.40;;;;;;5086567;28;20020;-74
2023/12/14 05:18:42;;;;;;;19.25;12.43;;;282.20;2278.40;;;;;;5060084;28;20078;-74
2023/12/14 05:21:08;;;;;;;19.73;14.25;;;282.30;2278.40;;;;;;5072925;28;20108;-74
2023/12/14 05:23:34;;;;;;;20.85;12.85;;;282.30;2278.40;;;;;;5073013;28;20047;-74
2023/12/14 05:26:00;;;;;;;20.45;13.73;;;282.30;2278.40;;;;;;5072870;28;20021;-74
2023/12/14 05:28:26;;;;;;;18.15;12.20;;;282.30;2278.40;;;;;;5071868;28;20027;-74
2023/12/14 05:30:51;;;;;;;18.02;12.52;;;282.40;2278.40;;;;;;5072726;28;20025;-74
2023/12/14 05:33:17;;;;;;;19.05;14.35;;;282.30;2278.40;;;;;;5072672;28;20045;-74
2023/12/14 05:35:43;;;;;;;24.38;16.75;;;282.10;2278.40;;;;;;5072991;28;20024;-74
2023/12/14 05:38:09;;;;;;;23.98;15.57;;;282.10;2278.40;;;;;;5072817;28;20012;-76
2023/12/14 05:40:34;;;;;;;22.98;17.02;;;282.10;2278.40;;;;;;5072728;28;20112;-74
2023/12/14 05:43:00;;;;;;;21.52;15.85;;;282.20;2278.40;;;;;;5072701;28;20056;-74
2023/12/14 05:45:26;;;;;;;21.38;15.52;;;282.20;2278.40;;;;;;5071775;28;20063;-74
2023/12/14 05:47:51;;;;;;;;;;;282.20;2278.40;;;;;;5073814;28;20079;-73
2023/12/14 05:50:17;;;;;;;23.58;15.15;;;282.20;2278.40;;;;;;5075641;28;19919;-73
2023/12/14 05:52:45;;;;;;;20.35;14.27;;;282.10;2278.40;;;;;;5072078;28;20025;-74
2023/12/14 05:55:11;;;;;;;22.58;14.95;;;282.20;2278.40;;;;;;5077940;28;20074;-73
2023/12/14 05:57:37;;;;;;;23.88;16.25;;;282.20;2278.40;;;;;;5067826;28;20016;-72
2023/12/14 06:00:05;;;;;;;29.17;16.98;;;282.30;2278.40;;;;;;5070948;28;20108;-74
2023/12/14 06:02:32;;;;;;;23.23;14.77;;;282.20;2278.40;;;;;;5075189;28;20107;-73
2023/12/14 06:04:58;;;;;;;22.35;14.15;;;282.10;2278.40;;;;;;5086107;28;20028;-73
2023/12/14 06:07:24;;;;;;;23.85;12.98;;;282.20;2278.40;;;;;;5078837;28;20052;-73
2023/12/14 06:09:50;;;;;;;22.38;15.18;;;282.30;2278.40;;;;;;5073250;28;20024;-74
2023/12/14 06:12:16;;;;;;;29.77;17.83;;;282.30;2278.40;;;;;;5080255;28;20027;-73
2023/12/14 06:14:42;;;;;;;28.58;17.52;;;282.10;2278.40;;;;;;5088477;28;20025;-74
2023/12/14 06:17:07;;;;;;;26.77;16.58;;;282.10;2278.40;;;;;;5077029;28;20059;-74
2023/12/14 06:19:33;;;;;;;23.83;16.40;;;282.10;2278.40;;;;;;5078335;28;20134;-74
2023/12/14 06:21:59;;;;;;;;;;;282.20;2278.40;;;;;;5070319;28;20025;-75
2023/12/14 06:24:24;;;;;;;21.45;15.15;;;282.20;2278.40;;;;;;5079176;28;19916;-74
2023/12/14 06:26:50;;;;;;;22.05;15.23;;;282.50;2278.40;;;;;;5080177;28;20024;-75
2023/12/14 06:29:16;;;;;;;21.40;14.70;;;282.30;2278.40;;;;;;5084619;28;20024;-75
2023/12/14 06:31:42;;;;;;;24.30;15.50;;;282.30;2278.40;;;;;;5076505;28;20424;-74
2023/12/14 06:34:07;;;;;;;20.25;14.13;;;282.30;2278.40;;;;;;5078714;28;20048;-74
2023/12/14 06:36:34;;;;;;;24.10;15.25;;;282.40;2278.40;;;;;;5088281;28;20017;-74
2023/12/14 06:39:01;;;;;;;27.90;16.70;;;282.40;2278.40;;;;;;5079908;28;20016;-74
2023/12/14 06:41:28;;;;;;;30.88;18.38;;;282.40;2278.40;;;;;;5064790;28;20017;-74
2023/12/14 06:43:54;;;;;;;33.20;19.55;;;282.40;2227.20;;;;;;5074667;28;20036;-74
2023/12/14 06:46:21;;;;;;;27.60;18.45;;;282.40;2227.20;;;;;;5073483;28;20024;-74
2023/12/14 06:48:47;;;;;;;31.80;18.67;;;282.40;2176.00;;;;;;5066873;28;20558;-76
2023/12/14 06:51:13;;;;;;;25.63;16.55;;;282.40;2278.40;;;;;;5071621;28;20025;-75
2023/12/14 06:53:40;;;;;;;19.13;13.50;;;282.40;2176.00;;;;;;5067223;28;20063;-75
2023/12/14 06:56:10;;;;;;;23.23;15.27;;;282.50;2278.40;;;;;;5074523;28;20094;-75
2023/12/14 06:58:37;;;;;;;19.83;12.75;;;282.40;2099.20;;;;;;5079842;28;20048;-75
2023/12/14 07:01:03;;;;;;;17.63;12.60;;;282.40;2150.40;;;;;;5072288;28;20020;-74
2023/12/14 07:03:29;;;;;;;18.38;12.38;;;282.30;1971.20;;;;;;5076721;28;20035;-74
2023/12/14 07:05:54;;;;;;;19.42;12.18;;;282.30;2124.80;;;;;;5074752;28;20028;-75
2023/12/14 07:08:20;;;;;;;17.05;10.45;;;282.20;2278.40;;;;;;5066659;28;20029;-75
2023/12/14 07:10:46;;;;;;;20.08;12.88;;;282.10;2278.40;;;;;;5063660;28;20370;-75
2023/12/14 07:13:11;;;;;;;;;;;282.20;2278.40;;;;;;5066853;28;20367;-75
2023/12/14 07:15:37;;;;;;;25.42;16.52;;;282.20;2278.40;;;;;;5070046;28;19912;-75
2023/12/14 07:18:03;;;;;;;20.65;12.98;;;282.00;2278.40;;;;;;5074213;28;20024;-75
2023/12/14 07:20:29;;;;;;;20.85;13.93;;;282.00;2278.40;;;;;;5082179;28;20025;-76
2023/12/14 07:22:55;;;;;;;18.98;11.98;;;282.00;2278.40;;;;;;5062391;28;20080;-74
2023/12/14 07:25:20;;;;;;;18.65;11.05;;;281.80;2278.40;;;;;;5076510;28;20123;-75
2023/12/14 07:27:46;;;;;;;15.55;10.73;;;281.80;2278.40;;;;;;5077698;28;20032;-74
2023/12/14 07:30:13;;;;;;;17.77;12.95;;;281.80;2278.40;;;;;;5075614;28;20378;-76
2023/12/14 07:32:39;;;;;;;21.08;13.13;;;281.90;2278.40;;;;;;5076421;28;20032;-77
2023/12/14 07:35:05;;;;;;;20.90;12.88;;;281.80;2278.40;;;;;;5068180;28;20043;-76
2023/12/14 07:37:31;;;;;;;22.25;14.00;;;281.80;2278.40;;;;;;5061317;28;20051;-76
2023/12/14 07:39:58;;;;;;;28.08;15.45;;;281.90;2278.40;;;;;;5062104;28;20537;-77
2023/12/14 07:42:24;;;;;;;29.63;17.55;;;281.80;2278.40;;;;;;5070782;28;20542;-77
2023/12/14 07:44:50;;;;;;;30.33;17.38;;;281.80;2278.40;;;;;;5079886;28;20040;-76
2023/12/14 07:47:16;;;;;;;31.88;17.90;;;282.00;2278.40;;;;;;5071340;28;20482;-76
2023/12/14 07:49:41;;;;;;;29.77;16.60;;;281.90;2278.40;;;;;;5074342;28;20115;-77
2023/12/14 07:52:07;;;;;;;30.23;16.83;;;281.90;2278.40;;;;;;5059839;28;20029;-76
2023/12/14 07:54:33;;;;;;;31.88;16.52;;;281.90;2278.40;;;;;;5066280;28;20029;-77
2023/12/14 07:56:59;;;;;;;27.67;15.05;;;282.00;2278.40;;;;;;5076447;28;20414;-77
2023/12/14 07:59:25;;;;;;;27.15;16.08;;;282.10;2278.40;;;;;;5077525;28;20024;-75
2023/12/14 08:01:50;;;;;;;27.83;16.48;;;282.10;2278.40;;;;;;5067879;28;20711;-75
2023/12/14 08:04:16;;;;;;;29.23;16.63;;;282.20;2278.40;;;;;;5076643;28;20072;-76
2023/12/14 08:06:42;;;;;;;37.78;23.38;;;282.20;2278.40;;;;;;5062490;28;20123;-76
2023/12/14 08:09:08;;;;;;;41.20;25.58;;;282.30;2278.40;;;;;;5056070;28;20442;-76
2023/12/14 08:11:34;;;;;;;28.13;17.05;;;282.30;2278.40;;;;;;5073773;28;20378;-76
2023/12/14 08:14:00;;;;;;;22.45;15.75;;;282.30;2201.60;;;;;;5059156;28;20100;-75
2023/12/14 08:16:26;;;;;;;20.92;13.90;;;282.40;2150.40;;;;;;5063752;28;20029;-76
2023/12/14 08:18:52;;;;;;;21.58;13.52;;;282.40;2022.40;;;;;;5069238;28;20070;-77
2023/12/14 08:21:18;;;;;;;24.70;13.45;;;282.40;1971.20;;;;;;5072080;28;20029;-76
2023/12/14 08:23:44;;;;;;;22.95;15.57;;;282.40;2022.40;;;;;;5065496;28;20056;-77
2023/12/14 08:26:12;;;;;;;26.08;14.75;;;282.50;1920.00;;;;;;5069043;28;20051;-76
2023/12/14 08:28:42;;;;;;;29.60;16.70;;;282.30;2099.20;;;;;;5070734;28;20400;-76
2023/12/14 08:31:09;;;;;;;33.88;20.80;;;282.40;2124.80;;;;;;5073846;28;20208;-76
2023/12/14 08:33:35;;;;;;;25.52;16.95;;;282.50;2048.00;;;;;;5076061;28;20056;-76
2023/12/14 08:36:01;;;;;;;23.10;15.38;;;282.40;1920.00;;;;;;5069619;28;20492;-76
2023/12/14 08:38:27;;;;;;;24.30;14.98;;;282.30;1894.40;;;;;;5060573;28;20025;-77
2023/12/14 08:40:52;;;;;;;28.20;16.48;;;282.30;2022.40;;;;;;5077652;28;20055;-77
2023/12/14 08:43:18;;;;;;;42.15;22.30;;;282.30;1894.40;;;;;;5071078;28;20048;-77
2023/12/14 08:45:44;;;;;;;37.13;21.80;;;282.30;2278.40;;;;;;5069119;28;20535;-77
2023/12/14 08:48:10;;;;;;;35.33;22.35;;;282.30;2278.40;;;;;;5066488;28;20033;-77
2023/12/14 08:50:36;;;;;;;33.67;18.48;;;282.30;2278.40;;;;;;5073087;28;20078;-77
2023/12/14 08:53:01;;;;;;;54.70;30.00;;;282.20;2278.40;;;;;;5068720;28;20028;-77
2023/12/14 08:55:28;;;;;;;35.33;20.00;;;282.30;2278.40;;;;;;5070311;28;20027;-77
2023/12/14 08:57:53;;;;;;;24.35;16.80;;;282.40;2278.40;;;;;;5072421;28;20035;-76
2023/12/14 09:00:19;;;;;;;74.80;37.80;;;282.50;2278.40;;;;;;5069528;28;20427;-77
2023/12/14 09:02:45;;;;;;;21.75;12.38;;;282.40;2176.00;;;;;;5069581;28;20028;-76
2023/12/14 09:05:15;;;;;;;86.85;36.20;;;282.50;2048.00;;;;;;5068609;28;20066;-77
2023/12/14 09:07:42;;;;;;;42.65;20.48;;;282.40;2278.40;;;;;;5067639;28;20020;-77
2023/12/14 09:10:08;;;;;;;70.68;27.05;;;282.40;2278.40;;;;;;5069587;28;20100;-76
2023/12/14 09:12:34;;;;;;;28.25;12.57;;;282.40;2150.40;;;;;;5065353;28;20027;-76
2023/12/14 09:15:00;;;;;;;84.38;28.08;;;282.20;2278.40;;;;;;5082276;28;20028;-77
2023/12/14 09:17:32;;;;;;;70.45;22.27;;;282.20;2278.40;;;;;;5066028;28;20027;-75
2023/12/14 09:20:04;;;;;;;82.22;27.13;;;282.20;2278.40;;;;;;5072390;28;20081;-74
2023/12/14 09:22:30;;;;;;;46.20;16.85;;;282.10;2278.40;;;;;;5063355;28;20024;-74
2023/12/14 09:24:56;;;;;;;32.90;15.18;;;282.10;2278.40;;;;;;5064413;28;20543;-75
2023/12/14 09:27:22;;;;;;;16.05;8.40;;;282.20;2278.40;;;;;;5062375;28;20021;-75
2023/12/14 09:29:48;;;;;;;29.80;11.27;;;282.20;2278.40;;;;;;5075686;28;20028;-75
2023/12/14 09:32:14;;;;;;;32.05;12.52;;;282.20;2278.40;;;;;;5075991;28;20108;-75
2023/12/14 09:34:40;;;;;;;32.53;13.00;;;282.30;2278.40;;;;;;5075416;28;20051;-73
2023/12/14 09:37:05;;;;;;;30.77;12.73;;;282.20;2278.40;;;;;;5059918;28;20020;-74
2023/12/14 09:39:31;;;;;;;27.48;13.50;;;282.30;2278.40;;;;;;5082738;28;20047;-75
2023/12/14 09:42:04;;;;;;;26.42;12.27;;;282.30;2278.40;;;;;;5072988;28;20059;-76
2023/12/14 09:44:31;;;;;;;27.13;11.75;;;282.40;2278.40;;;;;;5073292;28;20077;-75
2023/12/14 09:47:00;;;;;;;9.15;5.65;;;282.40;2278.40;;;;;;5075376;28;20390;-75
2023/12/14 09:49:30;;;;;;;33.67;12.18;;;282.30;2278.40;;;;;;5075672;28;20024;-74
2023/12/14 09:51:58;;;;;;;51.30;21.45;;;282.50;2278.40;;;;;;5071904;28;20498;-74
2023/12/14 09:54:26;;;;;;;39.15;15.18;;;282.50;2278.40;;;;;;5078112;28;20477;-75
2023/12/14 09:56:52;;;;;;;25.35;11.93;;;282.40;2278.40;;;;;;5074106;28;20169;-74
2023/12/14 09:59:19;;;;;;;20.42;11.15;;;282.40;2278.40;;;;;;5082067;28;20024;-74
2023/12/14 10:01:45;;;;;;;25.10;13.80;;;282.50;2278.40;;;;;;5066056;28;20025;-75
2023/12/14 10:04:15;;;;;;;26.90;15.32;;;282.40;2278.40;;;;;;5075091;28;20041;-75
2023/12/14 10:06:42;;;;;;;18.77;12.55;;;282.40;2278.40;;;;;;5077713;28;20474;-75
2023/12/14 10:09:09;;;;;;;28.45;16.70;;;282.20;2278.40;;;;;;5067136;28;20025;-73
2023/12/14 10:11:42;;;;;;;32.35;18.95;;;282.30;2278.40;;;;;;5069642;28;20546;-75
2023/12/14 10:14:22;;;;;;;45.95;23.20;;;282.30;2278.40;;;;;;5074929;28;20060;-75
2023/12/14 10:16:49;;;;;;;45.60;22.23;;;282.40;2278.40;;;;;;5072961;28;20059;-74
2023/12/14 10:19:17;;;;;;;29.33;20.20;;;282.40;2278.40;;;;;;5072955;28;20094;-74
2023/12/14 10:21:43;;;;;;;31.88;21.10;;;282.30;2278.40;;;;;;5072807;28;20050;-75
2023/12/14 10:24:09;;;;;;;33.17;19.67;;;282.30;2278.40;;;;;;5067213;28;20028;-76
2023/12/14 10:26:35;;;;;;;59.83;34.05;;;282.30;2278.40;;;;;;5081081;28;20025;-73
2023/12/14 10:29:04;;;;;;;36.88;22.25;;;282.20;2278.40;;;;;;5075549;28;20027;-74
2023/12/14 10:31:30;;;;;;;35.15;21.75;;;282.20;2278.40;;;;;;5079064;28;20029;-75
2023/12/14 10:33:56;;;;;;;29.38;19.45;;;282.20;2278.40;;;;;;5081746;28;20634;-74
2023/12/14 10:36:25;;;;;;;32.17;20.83;;;282.30;2278.40;;;;;;5074405;28;20020;-75
2023/12/14 10:38:57;;;;;;;34.70;19.63;;;282.30;2278.40;;;;;;5075312;28;20112;-75
2023/12/14 10:41:24;;;;;;;24.08;15.48;;;282.30;2278.40;;;;;;5074211;28;20028;-75
2023/12/14 10:43:53;;;;;;;42.60;25.13;;;282.20;2278.40;;;;;;5070041;28;20047;-74
2023/12/14 10:46:20;;;;;;;174.63;64.60;;;282.20;2278.40;;;;;;5073459;28;20028;-75
2023/12/14 10:48:49;;;;;;;44.20;27.33;;;282.20;2278.40;;;;;;5075024;28;20036;-75
2023/12/14 10:51:17;;;;;;;40.50;23.95;;;282.20;2278.40;;;;;;5074712;28;20024;-79
2023/12/14 10:53:47;;;;;;;36.30;22.80;;;282.30;2278.40;;;;;;5067828;28;20481;-74
2023/12/14 10:56:13;;;;;;;35.90;18.30;;;282.30;2278.40;;;;;;5075708;28;20944;-74
2023/12/14 10:58:47;;;;;;;36.40;21.45;;;282.30;2278.40;;;;;;5063761;28;20053;-74
2023/12/14 11:01:19;;;;;;;30.42;19.20;;;282.30;2278.40;;;;;;5071494;28;20024;-74
2023/12/14 11:03:46;;;;;;;24.17;15.70;;;282.40;2278.40;;;;;;5065310;28;20079;-75
2023/12/14 11:06:30;;;;;;;30.95;15.82;;;282.40;2048.00;;;;;;5070542;28;20091;-75
2023/12/14 11:09:05;;;;;;;33.15;18.30;;;282.40;2278.40;;;;;;5070744;28;20029;-74
2023/12/14 11:11:47;;;;;;;31.40;19.27;;;282.50;2278.40;;;;;;5075881;28;20485;-74
2023/12/14 11:14:18;;;;;;;28.80;18.30;;;282.40;1920.00;;;;;;5069057;28;20024;-74
2023/12/14 11:16:46;;;;;;;40.97;22.48;;;282.40;2278.40;;;;;;5077325;28;20016;-75
2023/12/14 11:19:33;;;;;;;35.20;21.80;;;282.40;2278.40;;;;;;5072173;28;20035;-75
2023/12/14 11:22:12;;;;;;;32.97;18.25;;;282.30;1971.20;;;;;;5065963;28;20048;-74
2023/12/14 11:24:42;;;;;;;31.25;19.75;;;282.40;2150.40;;;;;;5061622;28;20051;-74
2023/12/14 11:27:08;;;;;;;28.85;18.75;;;282.50;2278.40;;;;;;5087446;28;20036;-74
2023/12/14 11:29:36;;;;;;;33.20;20.67;;;282.50;2278.40;;;;;;5066330;28;20032;-74
2023/12/14 11:32:02;;;;;;;28.73;20.20;;;307.20;2304.00;;;;;;5061750;28;20044;-74
2023/12/14 11:34:28;;;;;;;38.45;22.73;;;282.50;2278.40;;;;;;5063174;28;20129;-74
2023/12/14 11:36:56;;;;;;;;;;;282.50;2278.40;;;;;;5073773;28;20098;-74
2023/12/14 11:39:22;;;;;;;32.45;18.55;;;282.50;1945.60;;;;;;5070361;28;19930;-74
2023/12/14 11:42:06;;;;;;;28.02;18.05;;;282.40;2278.40;;;;;;5086191;28;20525;-74
2023/12/14 11:44:36;;;;;;;31.17;18.17;;;282.30;2278.40;;;;;;5071233;28;20043;-73
2023/12/14 11:47:05;;;;;;;24.42;16.02;;;282.30;2048.00;;;;;;5089054;28;20381;-74
2023/12/14 11:49:32;;;;;;;33.22;17.52;;;282.20;2278.40;;;;;;5076618;28;20089;-74
2023/12/14 11:51:58;;;;;;;39.70;22.17;;;282.30;2278.40;;;;;;5075533;28;20046;-73
2023/12/14 11:54:31;;;;;;;31.45;19.23;;;282.30;1971.20;;;;;;5068587;28;20496;-73
2023/12/14 11:56:57;;;;;;;31.30;19.45;;;282.30;2278.40;;;;;;5080828;28;20020;-74
2023/12/14 11:59:23;;;;;;;39.83;21.08;;;282.30;2278.40;;;;;;5071688;28;20108;-74
2023/12/14 12:02:00;;;;;;;44.70;22.73;;;282.30;2124.80;;;;;;5074172;28;20066;-72
2023/12/14 12:04:26;;;;;;;32.22;20.00;;;282.50;2278.40;;;;;;5061720;28;20040;-74